Time;durP1;ratioP1;P1;durP2;ratioP2;P2;SDS_P1;SDS_P2;PMS_P1;PMS_P2;Temp;Humidity;BMP_temperature;BMP_pressure;BME280_temperature;BME280_humidity;BME280_pressure;Samples;Min_cycle;Max_cycle;Signal;HPM_P1;HPM_P2
2021/07/29 00:00:32;;;;;;;10.85;8.33;;;;;;;20.61;81.13;96307.91;1724789;82;21021;-80
2021/07/29 00:03:00;;;;;;;11.95;9.43;;;;;;;20.60;81.21;96309.48;1724697;82;21012;-80
2021/07/29 00:05:26;;;;;;;11.95;8.65;;;;;;;20.64;81.32;96310.58;1755991;80;20967;-80
2021/07/29 00:07:52;;;;;;;10.93;9.35;;;;;;;20.59;80.89;96312.65;1757303;80;21286;-80
2021/07/29 00:10:18;;;;;;;13.43;9.50;;;;;;;20.57;81.08;96317.38;1760353;80;20932;-80
2021/07/29 00:12:44;;;;;;;15.98;9.70;;;;;;;20.56;81.07;96314.98;1754596;80;20987;-80
2021/07/29 00:15:15;;;;;;;10.32;8.33;;;;;;;20.54;80.93;96318.39;1762711;80;20981;-80
2021/07/29 00:20:24;;;;;;;9.78;8.75;;;;;;;20.59;81.00;96308.69;1767446;80;21262;-80
2021/07/29 00:22:53;;;;;;;11.80;9.20;;;;;;;20.59;80.77;96308.69;1757506;80;21324;-80
2021/07/29 00:25:20;;;;;;;10.82;8.65;;;;;;;20.56;81.13;96318.42;1770847;80;20936;-80
2021/07/29 00:27:46;;;;;;;9.55;8.13;;;;;;;20.59;81.10;96306.05;1751701;80;21241;-80
2021/07/29 00:30:13;;;;;;;11.63;9.20;;;;;;;20.62;80.97;96306.87;1758594;80;21011;-80
2021/07/29 00:32:39;;;;;;;11.10;9.28;;;;;;;20.62;80.69;96310.03;1745795;80;20945;-80
2021/07/29 00:35:07;;;;;;;9.43;8.38;;;;;;;20.62;80.65;96310.03;1744019;82;20940;-80
2021/07/29 00:37:33;;;;;;;13.18;9.50;;;;;;;20.64;80.51;96303.98;1756251;80;20892;-80
2021/07/29 00:40:00;;;;;;;10.38;9.38;;;;;;;20.64;80.53;96311.37;1690838;84;20972;-80
2021/07/29 00:42:26;;;;;;;9.73;8.73;;;;;;;20.65;80.64;96317.45;1718060;82;20978;-80
2021/07/29 00:44:52;;;;;;;9.48;8.50;;;;;;;20.64;80.55;96321.94;1767618;80;20961;-80
2021/07/29 00:47:19;;;;;;;9.33;7.65;;;;;;;20.65;80.56;96318.77;1755453;80;20936;-80
2021/07/29 00:49:46;;;;;;;10.75;9.03;;;;;;;20.60;80.57;96323.48;1768924;80;20952;-80
2021/07/29 00:52:14;;;;;;;10.50;9.30;;;;;;;20.59;80.56;96327.69;1756186;80;21031;-80
2021/07/29 00:54:40;;;;;;;10.98;9.33;;;;;;;20.60;80.58;96330.60;1764772;80;21040;-80
2021/07/29 00:57:08;;;;;;;12.30;9.48;;;;;;;20.58;80.45;96334.81;1765477;80;21038;-80
2021/07/29 00:59:34;;;;;;;11.05;9.70;;;;;;;20.59;80.70;96339.56;1767106;80;21013;-80
2021/07/29 01:01:59;;;;;;;12.47;11.08;;;;;;;20.53;80.37;96343.20;1766570;80;21009;-80
2021/07/29 01:04:26;;;;;;;10.88;9.53;;;;;;;20.45;80.44;96337.81;1753592;80;21328;-79
2021/07/29 01:06:52;;;;;;;12.07;9.85;;;;;;;20.38;80.56;96347.20;1763394;80;20956;-80
2021/07/29 01:09:17;;;;;;;10.10;9.10;;;;;;;20.37;80.69;96346.93;1760783;80;20905;-80
2021/07/29 01:11:44;;;;;;;12.73;9.78;;;;;;;20.33;80.75;96348.44;1768384;80;20943;-80
2021/07/29 01:14:10;;;;;;;11.38;10.18;;;;;;;20.27;80.77;96348.63;1753326;80;21337;-80
2021/07/29 01:16:36;;;;;;;12.63;9.95;;;;;;;20.28;80.92;96344.42;1697192;84;21008;-80
2021/07/29 01:19:03;;;;;;;11.80;10.60;;;;;;;20.29;80.90;96348.66;1692794;84;21016;-80
2021/07/29 01:21:30;;;;;;;13.30;10.85;;;;;;;20.26;80.92;96346.51;1695151;84;20985;-80
2021/07/29 01:23:56;;;;;;;12.37;10.93;;;;;;;20.25;81.26;96346.75;1691932;83;20986;-80
2021/07/29 01:26:22;;;;;;;13.45;9.95;;;;;;;20.17;81.21;96343.99;1701423;84;21084;-80
2021/07/29 01:28:48;;;;;;;13.03;11.33;;;;;;;20.13;81.23;96347.37;1714099;82;20995;-80
2021/07/29 01:31:14;;;;;;;10.98;9.98;;;;;;;20.11;81.31;96340.22;1770982;80;21258;-80
2021/07/29 01:33:40;;;;;;;12.45;10.08;;;;;;;20.09;81.51;96339.95;1757147;80;20953;-80
2021/07/29 01:36:05;;;;;;;13.93;10.90;;;;;;;20.15;81.61;96334.73;1753960;80;20957;-80
2021/07/29 01:38:31;;;;;;;12.60;10.55;;;;;;;20.18;81.48;96336.39;1757205;80;20901;-80
2021/07/29 01:40:57;;;;;;;13.55;12.15;;;;;;;20.20;81.58;96333.50;1765148;80;20927;-80
2021/07/29 01:43:24;;;;;;;13.80;12.30;;;;;;;20.19;81.63;96335.86;1752891;80;20999;-80
2021/07/29 01:45:50;;;;;;;13.68;11.78;;;;;;;20.18;81.64;96329.00;1752503;80;20944;-80
2021/07/29 01:48:16;;;;;;;17.37;13.05;;;;;;;20.15;81.66;96322.34;1688693;84;20928;-80
2021/07/29 01:50:43;;;;;;;16.97;12.45;;;;;;;20.09;81.89;96320.16;1719629;82;20992;-80
2021/07/29 01:53:10;;;;;;;15.68;12.20;;;;;;;20.03;82.04;96318.51;1724397;83;20996;-80
2021/07/29 01:55:43;;;;;;;13.28;10.40;;;;;;;20.03;82.06;96305.84;1717918;82;20948;-80
2021/07/29 01:58:10;;;;;;;12.55;11.03;;;;;;;20.10;82.34;96305.14;1749526;80;20926;-80
2021/07/29 02:00:37;;;;;;;13.28;11.50;;;;;;;20.15;82.26;96301.76;1769411;80;20961;-80
2021/07/29 02:03:03;;;;;;;13.22;10.45;;;;;;;20.17;82.25;96307.06;1761759;80;20995;-80
2021/07/29 02:05:30;;;;;;;14.43;12.40;;;;;;;20.21;82.24;96304.23;1763493;80;20940;-80
2021/07/29 02:07:57;;;;;;;15.83;12.65;;;;;;;20.25;81.89;96313.25;1773754;80;20963;-80
2021/07/29 02:10:22;;;;;;;16.45;14.58;;;;;;;20.26;81.93;96323.28;1761293;80;20928;-80
2021/07/29 02:12:49;;;;;;;17.02;15.23;;;;;;;20.20;81.87;96320.31;1747133;80;21309;-80
2021/07/29 02:15:15;;;;;;;17.85;15.75;;;;;;;20.18;82.15;96330.31;1765059;80;21042;-80
2021/07/29 02:17:41;;;;;;;20.05;18.05;;;;;;;20.16;82.07;96332.38;1765129;80;20920;-80
2021/07/29 02:20:08;;;;;;;19.62;17.37;;;;;;;20.19;82.11;96330.59;1761500;80;20935;-80
2021/07/29 02:22:33;;;;;;;15.03;13.62;;;;;;;20.22;81.97;96334.85;1761385;80;20951;-79
2021/07/29 02:24:59;;;;;;;15.80;12.65;;;;;;;20.23;81.97;96339.61;1738472;80;21209;-80
2021/07/29 02:27:25;;;;;;;18.32;16.48;;;;;;;20.28;82.37;96343.10;1766032;80;20908;-80
2021/07/29 02:29:51;;;;;;;19.98;18.02;;;;;;;20.35;82.18;96338.46;1767893;80;20980;-80
2021/07/29 02:32:17;;;;;;;20.17;16.60;;;;;;;20.39;82.06;96341.41;1757745;80;20931;-80
2021/07/29 02:34:43;;;;;;;18.62;16.60;;;;;;;20.37;81.79;96339.02;1727761;80;20976;-79
2021/07/29 02:37:09;;;;;;;18.37;16.48;;;;;;;20.35;81.65;96338.98;1772424;80;20955;-80
2021/07/29 02:39:36;;;;;;;17.95;16.07;;;;;;;20.34;81.71;96332.91;1767848;80;20923;-80
2021/07/29 02:42:03;;;;;;;21.93;18.15;;;;;;;20.36;81.73;96336.09;1766788;80;22277;-80
2021/07/29 02:44:28;;;;;;;20.23;16.70;;;;;;;20.38;81.80;96336.65;1769803;80;20941;-80
2021/07/29 02:46:54;;;;;;;20.35;16.93;;;;;;;20.39;81.63;96344.05;1771159;80;20905;-80
2021/07/29 02:49:20;;;;;;;17.75;15.85;;;;;;;20.36;81.59;96338.73;1764193;80;21192;-80
2021/07/29 02:51:45;;;;;;;18.00;16.20;;;;;;;20.33;81.45;96346.32;1770916;80;21003;-80
2021/07/29 02:54:11;;;;;;;18.77;16.35;;;;;;;20.30;81.33;96345.49;1760161;80;20939;-80
2021/07/29 02:56:37;;;;;;;18.73;16.00;;;;;;;20.29;81.36;96351.81;1762032;80;20951;-80
2021/07/29 02:59:03;;;;;;;18.12;16.17;;;;;;;20.28;81.38;96349.70;1767491;80;20968;-80
2021/07/29 03:01:28;;;;;;;17.45;15.55;;;;;;;20.26;81.32;96353.11;1757254;80;21000;-80
2021/07/29 03:03:54;;;;;;;18.23;16.23;;;;;;;20.21;81.28;96353.05;1753128;81;20968;-80
2021/07/29 03:06:20;;;;;;;16.42;14.63;;;;;;;20.18;81.38;96352.73;1687592;84;21324;-80
2021/07/29 03:08:47;;;;;;;15.93;14.35;;;;;;;20.18;81.44;96355.38;1757459;80;20973;-80
2021/07/29 03:11:12;;;;;;;15.85;14.15;;;;;;;20.17;81.57;96359.82;1756293;81;20921;-80
2021/07/29 03:13:38;;;;;;;16.02;14.45;;;;;;;20.19;81.41;96353.02;1756995;81;21419;-80
2021/07/29 03:16:04;;;;;;;17.17;14.15;;;;;;;20.18;81.41;96354.05;1761033;81;20956;-81
2021/07/29 03:18:30;;;;;;;14.47;12.95;;;;;;;20.20;81.43;96354.09;1690973;84;21302;-80
2021/07/29 03:20:56;;;;;;;10.05;9.10;;;;;;;20.19;81.26;96349.05;1760178;81;20907;-81
2021/07/29 03:23:22;;;;;;;7.90;6.50;;;;;;;20.17;81.00;96359.82;1759901;81;20967;-81
2021/07/29 03:25:49;;;;;;;5.58;4.97;;;;;;;20.13;80.50;96353.44;1752410;81;21336;-80
2021/07/29 03:28:16;;;;;;;5.45;4.92;;;;;;;20.06;80.12;96352.83;1751260;81;21018;-79
2021/07/29 03:30:42;;;;;;;4.97;4.45;;;;;;;19.98;79.70;96354.02;1746694;81;20987;-79
2021/07/29 03:33:10;;;;;;;6.00;4.83;;;;;;;19.91;79.58;96353.40;1684119;84;21035;-79
2021/07/29 03:35:40;;;;;;;4.62;4.17;;;;;;;19.84;79.41;96353.27;1749937;81;21031;-79
2021/07/29 03:38:07;;;;;;;4.55;4.00;;;;;;;19.76;79.34;96350.01;1753415;81;20965;-79
2021/07/29 03:40:33;;;;;;;5.28;4.12;;;;;;;19.69;79.30;96342.80;1750079;81;21031;-79
2021/07/29 03:43:02;;;;;;;5.90;5.03;;;;;;;19.63;79.24;96342.41;1752690;81;21513;-79
2021/07/29 03:45:26;;;;;;;5.22;4.62;;;;;;;19.56;79.20;96345.73;1740409;81;20973;-78
2021/07/29 03:47:52;;;;;;;6.47;5.20;;;;;;;19.48;79.17;96343.45;1753330;81;21263;-79
2021/07/29 03:50:18;;;;;;;6.03;5.37;;;;;;;19.44;79.44;96349.72;1763205;81;21014;-78
2021/07/29 03:52:44;;;;;;;5.78;5.17;;;;;;;19.40;79.51;96349.13;1685590;84;21012;-78
2021/07/29 03:55:10;;;;;;;6.05;5.25;;;;;;;19.35;79.69;96352.97;1712785;83;21336;-79
2021/07/29 03:57:36;;;;;;;5.87;5.08;;;;;;;19.33;79.74;96357.68;1696986;83;20966;-78
2021/07/29 04:00:03;;;;;;;6.22;5.22;;;;;;;19.33;79.88;96359.00;1698832;83;21041;-78
2021/07/29 04:02:29;;;;;;;6.60;5.85;;;;;;;19.34;80.17;96356.64;1699293;83;21003;-78
2021/07/29 04:04:55;;;;;;;5.75;5.22;;;;;;;19.34;80.24;96356.13;1720344;83;20939;-78
2021/07/29 04:07:21;;;;;;;8.10;6.47;;;;;;;19.36;80.32;96356.71;1696184;83;21241;-79
2021/07/29 04:09:47;;;;;;;7.53;6.72;;;;;;;19.40;80.47;96357.03;1722214;82;20947;-78
2021/07/29 04:12:12;;;;;;;8.68;7.05;;;;;;;19.41;80.52;96352.04;1722837;82;21023;-78
2021/07/29 04:14:40;;;;;;;6.50;5.87;;;;;;;19.40;80.71;96360.98;1724467;82;20999;-79
2021/07/29 04:17:06;;;;;;;7.30;5.67;;;;;;;19.41;80.92;96359.95;1734963;82;20947;-79
2021/07/29 04:19:33;;;;;;;6.53;5.87;;;;;;;19.44;81.01;96366.05;1708243;82;21024;-79
2021/07/29 04:22:00;;;;;;;5.80;5.28;;;;;;;19.45;80.98;96362.38;1724749;82;20935;-78
2021/07/29 04:24:26;;;;;;;5.62;5.00;;;;;;;19.48;81.13;96368.48;1696317;83;21423;-78
2021/07/29 04:26:52;;;;;;;5.95;5.33;;;;;;;19.55;81.25;96369.18;1699834;83;21026;-78
2021/07/29 04:29:18;;;;;;;5.65;5.12;;;;;;;19.60;81.25;96369.25;1697422;83;21003;-78
2021/07/29 04:31:44;;;;;;;7.25;5.30;;;;;;;19.66;81.37;96370.12;1697010;83;20995;-78
2021/07/29 04:34:09;;;;;;;7.20;5.47;;;;;;;19.69;81.13;96369.16;1695935;83;21304;-78
2021/07/29 04:36:39;;;;;;;5.78;5.20;;;;;;;19.67;81.09;96365.93;1713080;83;20928;-79
2021/07/29 04:39:07;;;;;;;7.08;5.37;;;;;;;19.67;81.38;96364.61;1695937;83;20915;-79
2021/07/29 04:41:39;;;;;;;6.72;5.37;;;;;;;19.70;81.37;96364.16;1707773;83;21007;-78
2021/07/29 04:44:09;;;;;;;6.67;6.00;;;;;;;19.74;81.44;96357.36;1707931;82;20945;-79
2021/07/29 04:46:36;;;;;;;5.37;4.87;;;;;;;19.78;81.39;96357.16;1726946;82;20944;-79
2021/07/29 04:49:05;;;;;;;6.72;5.42;;;;;;;19.84;81.42;96357.22;1708594;82;20944;-78
2021/07/29 04:51:33;;;;;;;6.92;5.58;;;;;;;19.87;81.31;96363.36;1727095;82;21004;-78
2021/07/29 04:53:59;;;;;;;6.00;5.28;;;;;;;19.93;81.37;96363.70;1725924;82;21015;-78
2021/07/29 04:56:25;;;;;;;8.70;5.47;;;;;;;20.05;81.67;96368.38;1713725;82;20988;-79
2021/07/29 04:58:51;;;;;;;5.62;4.97;;;;;;;20.15;81.33;96369.82;1712395;83;21247;-78
2021/07/29 05:01:17;;;;;;;6.00;5.40;;;;;;;20.15;81.05;96369.82;1721060;83;20880;-78
2021/07/29 05:03:44;;;;;;;5.92;5.10;;;;;;;20.19;81.13;96374.12;1687625;83;21023;-78
2021/07/29 05:06:09;;;;;;;6.45;5.83;;;;;;;20.25;81.24;96371.81;1757652;81;20944;-78
2021/07/29 05:08:35;;;;;;;5.83;4.60;;;;;;;20.28;81.05;96368.69;1751123;81;20933;-79
2021/07/29 05:11:05;;;;;;;6.40;5.72;;;;;;;20.33;80.96;96376.66;1749469;81;20940;-79
2021/07/29 05:13:31;;;;;;;7.35;6.67;;;;;;;20.39;80.75;96375.71;1752601;81;21037;-79
2021/07/29 05:15:59;;;;;;;8.48;5.25;;;;;;;20.38;80.50;96377.55;1751685;81;21333;-79
2021/07/29 05:18:25;;;;;;;5.65;5.10;;;;;;;20.43;80.41;96381.33;1753931;81;20978;-79
2021/07/29 05:20:51;;;;;;;7.75;5.62;;;;;;;20.45;80.49;96379.23;1684192;84;20988;-78
2021/07/29 05:23:16;;;;;;;7.08;5.22;;;;;;;20.41;80.42;96379.42;1675426;84;21281;-78
2021/07/29 05:25:42;;;;;;;5.92;4.80;;;;;;;20.42;80.29;96388.97;1705341;83;20917;-78
2021/07/29 05:28:08;;;;;;;6.17;4.83;;;;;;;20.45;79.66;96388.47;1753780;80;20956;-78
2021/07/29 05:30:36;;;;;;;5.72;4.90;;;;;;;20.46;79.38;96388.75;1742083;80;21254;-78
2021/07/29 05:33:04;;;;;;;5.00;4.35;;;;;;;20.44;79.00;96397.44;1742539;81;21016;-78
2021/07/29 05:35:30;;;;;;;7.62;4.67;;;;;;;20.37;78.74;96398.91;1748213;81;21337;-78
2021/07/29 05:37:55;;;;;;;4.85;4.35;;;;;;;20.30;78.59;96399.06;1686927;84;20972;-79
2021/07/29 05:40:21;;;;;;;5.53;4.28;;;;;;;20.27;78.32;96400.88;1749718;81;20909;-78
2021/07/29 05:42:47;;;;;;;6.42;4.70;;;;;;;20.26;78.33;96409.03;1750313;81;20929;-79
2021/07/29 05:45:12;;;;;;;5.60;4.83;;;;;;;20.28;78.58;96401.67;1765910;80;20953;-79
2021/07/29 05:47:38;;;;;;;6.85;4.55;;;;;;;20.26;78.60;96408.51;1721720;81;20958;-78
2021/07/29 05:50:05;;;;;;;5.08;4.50;;;;;;;20.28;78.70;96404.30;1680074;84;20968;-79
2021/07/29 05:52:30;;;;;;;6.03;4.33;;;;;;;20.26;78.90;96404.55;1695711;84;21296;-78
2021/07/29 05:54:56;;;;;;;4.17;3.60;;;;;;;20.23;78.73;96401.61;1697760;84;21011;-78
2021/07/29 05:57:22;;;;;;;6.70;4.17;;;;;;;20.23;79.00;96397.64;1708995;84;21051;-79
2021/07/29 05:59:47;;;;;;;5.05;4.20;;;;;;;20.25;79.13;96391.08;1706303;83;21288;-79
2021/07/29 06:02:13;;;;;;;8.05;4.30;;;;;;;20.30;79.04;96390.34;1745558;80;21122;-79
2021/07/29 06:04:39;;;;;;;6.08;4.42;;;;;;;20.33;78.84;96390.66;1758496;80;21012;-78
2021/07/29 06:07:04;;;;;;;9.28;5.58;;;;;;;20.32;78.66;96397.50;1759082;80;20969;-79
2021/07/29 06:09:30;;;;;;;7.92;6.03;;;;;;;20.32;77.90;96390.38;1769703;80;21305;-79
2021/07/29 06:11:59;;;;;;;5.67;4.45;;;;;;;20.25;76.52;96388.97;1762692;80;21287;-78
2021/07/29 06:14:25;;;;;;;5.92;4.30;;;;;;;20.28;77.72;96387.16;1763839;80;21023;-79
2021/07/29 06:16:51;;;;;;;6.55;4.30;;;;;;;20.30;78.11;96394.30;1759268;80;21214;-78
2021/07/29 06:19:18;;;;;;;5.08;4.45;;;;;;;20.32;77.96;96391.70;1767766;80;21281;-79
2021/07/29 06:21:45;;;;;;;4.80;4.22;;;;;;;20.33;77.88;96390.66;1757709;80;21281;-79
2021/07/29 06:24:11;;;;;;;5.42;4.10;;;;;;;20.30;77.88;96387.19;1763879;80;20920;-78
2021/07/29 06:26:38;;;;;;;4.97;4.45;;;;;;;20.27;77.85;96391.64;1751865;80;20998;-78
2021/07/29 06:29:05;;;;;;;8.23;6.03;;;;;;;20.30;78.16;96388.51;1750538;80;20976;-78
2021/07/29 06:31:32;;;;;;;6.87;6.20;;;;;;;20.33;76.87;96395.94;1749271;80;20951;-78
2021/07/29 06:33:59;;;;;;;8.28;7.47;;;;;;;20.34;77.10;96397.56;1749911;80;20976;-79
2021/07/29 06:36:25;;;;;;;7.85;7.03;;;;;;;20.33;76.49;96397.25;1739115;80;20915;-77
2021/07/29 06:38:51;;;;;;;10.18;7.40;;;;;;;20.36;76.17;96401.27;1750560;80;21236;-81
2021/07/29 06:41:16;;;;;;;11.35;8.10;;;;;;;20.42;76.13;96399.00;1754422;80;20955;-81
2021/07/29 06:43:42;;;;;;;9.20;8.20;;;;;;;20.38;74.66;96405.27;1756625;80;21035;-79
2021/07/29 06:46:08;;;;;;;12.30;7.25;;;;;;;20.35;74.50;96405.75;1750579;80;21351;-80
2021/07/29 06:48:35;;;;;;;11.65;7.03;;;;;;;20.38;74.75;96403.94;1752905;80;21027;-80
2021/07/29 06:51:04;;;;;;;8.20;7.30;;;;;;;20.43;74.17;96397.95;1757278;80;21042;-79
2021/07/29 06:53:31;;;;;;;8.23;7.22;;;;;;;20.44;74.04;96399.55;1755018;80;21098;-80
2021/07/29 06:55:59;;;;;;;6.90;5.62;;;;;;;20.54;74.34;96402.86;1750851;80;20981;-79
2021/07/29 06:58:26;;;;;;;7.90;5.97;;;;;;;20.60;74.53;96403.20;1751130;80;20992;-80
2021/07/29 07:00:51;;;;;;;6.45;5.47;;;;;;;20.66;74.47;96402.20;1753948;80;20975;-79
2021/07/29 07:03:18;;;;;;;6.75;5.35;;;;;;;20.74;74.44;96403.12;1737894;80;21305;-80
2021/07/29 07:05:46;;;;;;;6.85;5.87;;;;;;;20.93;74.95;96400.97;1728339;81;21003;-80
2021/07/29 07:08:13;;;;;;;8.38;7.50;;;;;;;21.10;74.35;96403.53;1731042;81;21206;-80
2021/07/29 07:10:39;;;;;;;8.15;6.55;;;;;;;21.17;72.77;96402.31;1738912;81;21021;-80
2021/07/29 07:13:05;;;;;;;9.38;8.35;;;;;;;21.18;71.99;96411.03;1734786;81;20975;-80
2021/07/29 07:15:32;;;;;;;10.10;8.00;;;;;;;21.20;72.20;96414.22;1733002;81;21025;-80
2021/07/29 07:17:58;;;;;;;7.42;5.87;;;;;;;21.26;71.92;96406.13;1742679;81;20995;-80
2021/07/29 07:20:24;;;;;;;6.75;5.92;;;;;;;21.36;72.75;96413.89;1737473;80;20983;-80
2021/07/29 07:22:51;;;;;;;7.28;6.55;;;;;;;21.49;73.07;96405.57;1738841;81;21282;-81
2021/07/29 07:25:17;;;;;;;18.10;12.95;;;;;;;21.56;72.80;96412.77;1736433;81;20900;-78
2021/07/29 07:27:42;;;;;;;14.80;11.73;;;;;;;21.55;72.90;96407.20;1743667;81;20917;-78
2021/07/29 07:30:09;;;;;;;29.18;24.05;;;;;;;21.52;72.32;96411.15;1736759;81;20952;-79
2021/07/29 07:32:35;;;;;;;12.85;11.25;;;;;;;21.40;72.68;96422.39;1733393;81;20973;-81
2021/07/29 07:35:02;;;;;;;9.98;9.00;;;;;;;21.27;73.16;96426.21;1727290;81;21054;-79
2021/07/29 07:37:27;;;;;;;11.33;10.20;;;;;;;21.17;73.30;96427.41;1737449;81;20996;-79
2021/07/29 07:39:53;;;;;;;17.25;14.93;;;;;;;21.13;73.71;96422.32;1673255;84;20944;-79
2021/07/29 07:42:19;;;;;;;10.43;9.23;;;;;;;21.08;74.08;96414.34;1691828;84;20956;-79
2021/07/29 07:44:45;;;;;;;9.88;8.98;;;;;;;21.13;74.03;96417.56;1737180;81;21318;-81
2021/07/29 07:47:10;;;;;;;10.05;9.05;;;;;;;21.17;74.05;96419.48;1741195;81;21011;-79
2021/07/29 07:49:38;;;;;;;9.93;9.08;;;;;;;21.28;74.23;96421.20;1739343;81;21011;-80
2021/07/29 07:52:08;;;;;;;9.25;8.10;;;;;;;21.42;73.76;96418.17;1734894;81;21051;-79
2021/07/29 07:54:32;;;;;;;17.20;10.75;;;;;;;21.42;73.29;96416.33;1716632;81;20978;-81
2021/07/29 07:56:58;;;;;;;11.70;10.50;;;;;;;21.42;73.64;96411.56;1704275;82;21271;-80
2021/07/29 07:59:24;;;;;;;10.90;9.73;;;;;;;21.42;73.34;96410.24;1720817;81;21004;-79
2021/07/29 08:01:50;;;;;;;11.38;10.32;;;;;;;21.49;73.29;96402.92;1725727;81;21004;-79
2021/07/29 08:04:16;;;;;;;9.20;8.28;;;;;;;21.54;72.84;96405.09;1737075;80;21753;-79
2021/07/29 08:06:42;;;;;;;9.75;8.58;;;;;;;21.60;72.51;96399.84;1734373;80;21028;-79
2021/07/29 08:09:07;;;;;;;9.55;8.65;;;;;;;21.57;72.18;96403.26;1741581;80;20970;-79
2021/07/29 08:11:33;;;;;;;12.35;9.75;;;;;;;21.56;72.06;96403.51;1734172;80;20975;-79
2021/07/29 08:14:00;;;;;;;10.13;9.23;;;;;;;21.61;71.65;96404.87;1739582;80;21145;-79
2021/07/29 08:16:26;;;;;;;10.00;8.88;;;;;;;21.65;71.91;96401.22;1742232;80;21240;-79
2021/07/29 08:18:53;;;;;;;11.22;10.23;;;;;;;21.73;72.00;96401.55;1748288;82;20968;-79
2021/07/29 08:21:20;;;;;;;9.90;8.80;;;;;;;21.72;70.51;96400.48;1736040;82;20952;-79
2021/07/29 08:23:45;;;;;;;9.45;8.40;;;;;;;21.75;71.12;96398.13;1730061;80;21304;-79
2021/07/29 08:26:11;;;;;;;8.55;7.62;;;;;;;21.85;70.94;96407.48;1740511;82;20944;-78
2021/07/29 08:28:42;;;;;;;8.40;7.70;;;;;;;22.04;70.93;96401.80;1730312;80;21027;-78
2021/07/29 08:31:12;;;;;;;8.98;8.08;;;;;;;22.14;70.46;96405.35;1735254;80;21209;-80
2021/07/29 08:33:38;;;;;;;8.05;7.20;;;;;;;22.35;69.87;96401.51;1731627;80;21365;-80
2021/07/29 08:36:05;;;;;;;7.58;6.80;;;;;;;22.60;69.22;96397.66;1746731;80;20972;-80
2021/07/29 08:38:31;;;;;;;8.20;7.40;;;;;;;22.76;68.08;96396.68;1739543;82;20940;-80
2021/07/29 08:40:57;;;;;;;7.37;6.65;;;;;;;22.92;67.87;96389.63;1742395;80;21272;-80
2021/07/29 08:43:23;;;;;;;7.97;6.92;;;;;;;23.05;66.82;96391.80;1744583;80;20931;-80
2021/07/29 08:45:51;;;;;;;7.67;6.87;;;;;;;23.14;66.30;96391.30;1741908;80;21002;-80
2021/07/29 08:48:25;;;;;;;9.65;8.75;;;;;;;23.17;65.25;96390.25;1728717;80;20972;-80
2021/07/29 08:50:51;;;;;;;8.60;7.58;;;;;;;23.19;65.70;96382.83;1727754;80;20947;-80
2021/07/29 08:53:17;;;;;;;7.53;6.83;;;;;;;23.31;65.79;96380.74;1746039;80;20980;-80
2021/07/29 08:55:53;;;;;;;7.80;7.10;;;;;;;23.39;64.65;96383.39;1712864;82;22318;-80
2021/07/29 08:58:19;;;;;;;6.95;5.78;;;;;;;23.48;64.45;96387.66;1730060;80;21367;-79
2021/07/29 09:01:01;;;;;;;7.35;6.53;;;;;;;23.56;63.46;96381.82;1741192;80;21016;-79
2021/07/29 09:03:27;;;;;;;7.37;6.50;;;;;;;23.62;64.02;96383.47;1737550;80;20982;-79
2021/07/29 09:06:02;;;;;;;6.87;6.28;;;;;;;23.69;63.51;96374.70;1732041;81;20984;-79
2021/07/29 09:08:31;;;;;;;6.28;5.70;;;;;;;23.77;63.44;96376.84;1730309;82;20960;-79
2021/07/29 09:10:57;;;;;;;6.35;5.80;;;;;;;23.87;62.74;96365.42;1724823;81;21044;-79
2021/07/29 09:13:22;;;;;;;6.92;6.33;;;;;;;23.95;63.15;96370.20;1727996;81;21013;-79
2021/07/29 09:16:08;;;;;;;6.60;6.00;;;;;;;23.96;62.39;96365.16;1728359;81;20946;-79
2021/07/29 09:18:35;;;;;;;6.17;5.67;;;;;;;24.04;62.19;96361.95;1710162;81;20933;-78
2021/07/29 09:21:13;;;;;;;6.62;5.55;;;;;;;24.11;61.86;96365.14;1716801;81;21033;-80
2021/07/29 09:23:39;;;;;;;6.58;5.97;;;;;;;24.16;61.04;96366.45;1722875;81;20913;-80
2021/07/29 09:26:05;;;;;;;6.20;5.60;;;;;;;24.21;60.73;96360.33;1724387;81;20917;-79
2021/07/29 09:28:39;;;;;;;5.87;5.37;;;;;;;24.25;60.88;96364.06;1723366;81;21262;-79
2021/07/29 09:31:22;;;;;;;9.58;8.78;;;;;;;24.35;60.77;96368.04;1719907;81;20960;-79
2021/07/29 09:33:59;;;;;;;6.65;6.05;;;;;;;24.45;59.97;96368.55;1720011;81;21270;-79
2021/07/29 09:36:25;;;;;;;5.70;5.20;;;;;;;24.38;60.42;96372.01;1709486;82;20971;-79
2021/07/29 09:38:51;;;;;;;5.90;5.30;;;;;;;24.41;58.05;96378.13;1727926;81;20984;-79
2021/07/29 09:41:26;;;;;;;5.33;4.80;;;;;;;24.38;59.63;96375.99;1721960;81;20917;-80
2021/07/29 09:43:54;;;;;;;6.33;5.70;;;;;;;24.37;59.38;96380.51;1725709;81;21318;-79
2021/07/29 09:46:19;;;;;;;6.83;5.50;;;;;;;24.45;58.77;96386.61;1720101;82;21084;-80
2021/07/29 09:48:45;;;;;;;5.03;4.47;;;;;;;24.46;58.75;96379.44;1730117;81;21314;-79
2021/07/29 09:51:11;;;;;;;5.58;4.60;;;;;;;24.49;58.15;96374.91;1728905;81;20937;-79
2021/07/29 09:53:38;;;;;;;5.40;4.90;;;;;;;24.35;59.41;96377.33;1725754;81;20953;-79
2021/07/29 09:56:09;;;;;;;4.80;4.30;;;;;;;24.39;57.97;96383.69;1718698;81;20949;-80
2021/07/29 09:58:35;;;;;;;4.40;4.00;;;;;;;24.42;57.03;96381.84;1735082;81;20929;-80
2021/07/29 10:01:02;;;;;;;5.40;4.55;;;;;;;24.48;57.64;96383.41;1732436;81;20944;-80
2021/07/29 10:03:28;;;;;;;4.33;3.77;;;;;;;24.55;57.86;96383.12;1736485;81;20995;-80
2021/07/29 10:06:02;;;;;;;4.50;4.10;;;;;;;24.55;56.26;96383.91;1727602;80;20988;-80
2021/07/29 10:08:41;;;;;;;4.60;3.98;;;;;;;24.62;56.84;96384.97;1739070;81;20940;-81
2021/07/29 10:11:13;;;;;;;4.95;3.80;;;;;;;24.69;57.88;96381.48;1734942;80;20964;-80
2021/07/29 10:13:40;;;;;;;4.03;3.62;;;;;;;24.79;56.27;96387.30;1731907;81;20980;-80
2021/07/29 10:16:07;;;;;;;3.30;3.00;;;;;;;24.85;56.65;96384.88;1729420;80;21011;-81
2021/07/29 10:18:57;;;;;;;3.87;3.20;;;;;;;24.94;54.57;96386.45;1733073;81;21304;-81
2021/07/29 10:21:29;;;;;;;3.75;3.45;;;;;;;24.94;53.66;96378.48;1711696;81;20985;-81
2021/07/29 10:23:59;;;;;;;5.05;3.30;;;;;;;24.93;55.06;96380.34;1728121;81;21370;-80
2021/07/29 10:26:27;;;;;;;4.22;2.27;;;;;;;24.94;52.87;96375.82;1735511;80;21283;-81
2021/07/29 10:28:52;;;;;;;3.40;2.40;;;;;;;24.89;50.72;96377.95;1744251;80;20921;-81
2021/07/29 10:31:19;;;;;;;2.37;2.17;;;;;;;24.93;52.10;96375.56;1736676;80;20938;-81
2021/07/29 10:33:50;;;;;;;3.33;2.25;;;;;;;25.02;51.92;96367.29;1732418;81;20924;-80
2021/07/29 10:36:44;;;;;;;2.30;1.90;;;;;;;25.17;52.38;96374.39;1732618;82;21260;-81
2021/07/29 10:39:10;;;;;;;2.77;2.10;;;;;;;25.19;50.78;96368.27;1728196;82;21040;-81
2021/07/29 10:41:43;;;;;;;2.98;2.62;;;;;;;25.26;50.44;96363.45;1734442;80;21230;-80
2021/07/29 10:44:30;;;;;;;3.37;2.50;;;;;;;25.33;51.33;96368.70;1727797;80;20959;-80
2021/07/29 10:47:01;;;;;;;2.90;2.12;;;;;;;25.38;50.40;96366.55;1718966;82;20893;-81
2021/07/29 10:50:00;;;;;;;3.58;2.33;;;;;;;25.41;50.58;96357.50;1736399;82;21000;-81
2021/07/29 10:52:29;;;;;;;2.87;2.40;;;;;;;25.57;50.95;96355.53;1721547;81;21036;-80
2021/07/29 10:54:54;;;;;;;2.72;2.40;;;;;;;25.57;50.95;96355.53;1732534;80;21238;-81
2021/07/29 10:57:20;;;;;;;2.42;2.22;;;;;;;25.70;52.00;96356.77;1737565;82;20966;-81
2021/07/29 10:59:46;;;;;;;2.30;2.10;;;;;;;25.77;49.63;96351.14;1734150;80;21295;-81
2021/07/29 11:02:20;;;;;;;2.60;2.20;;;;;;;25.75;49.64;96350.63;1687982;80;21432;-81
2021/07/29 11:04:58;;;;;;;2.83;2.15;;;;;;;25.78;51.10;96344.75;1738557;80;20973;-80
2021/07/29 11:07:25;;;;;;;3.72;2.62;;;;;;;25.75;49.15;96349.30;1735371;81;20979;-80
2021/07/29 11:10:04;;;;;;;3.02;2.52;;;;;;;25.63;49.79;96342.44;1733603;80;21003;-80
2021/07/29 11:12:30;;;;;;;3.87;3.10;;;;;;;25.68;50.93;96339.75;1743896;82;21301;-80
2021/07/29 11:14:58;;;;;;;5.67;2.55;;;;;;;25.68;50.93;96339.75;1747504;80;21048;-80
2021/07/29 11:17:24;;;;;;;3.10;2.12;;;;;;;25.69;48.85;96333.89;1710580;82;21836;-80
2021/07/29 11:19:49;;;;;;;2.92;2.30;;;;;;;25.69;48.85;96333.89;1736456;80;20936;-81
2021/07/29 11:22:15;;;;;;;3.00;2.20;;;;;;;25.79;49.88;96339.68;1723795;82;20932;-80
2021/07/29 11:24:41;;;;;;;2.30;1.85;;;;;;;25.83;48.47;96350.81;1717672;80;20900;-81
2021/07/29 11:27:11;;;;;;;2.50;2.27;;;;;;;25.90;49.42;96343.85;1745341;82;21318;-83
2021/07/29 11:29:35;;;;;;;2.08;1.70;;;;;;;25.96;47.44;96345.38;1732859;82;20955;-81
2021/07/29 11:32:01;;;;;;;2.75;2.10;;;;;;;25.96;47.44;96345.38;1713203;82;21399;-81